createdAt,value
2023-03-19T00:00:38.641Z,3.20
2023-03-19T00:03:07.110Z,3.20
2023-03-19T00:05:35.803Z,3.10
2023-03-19T00:08:04.532Z,3.10
2023-03-19T00:10:32.999Z,3.00
2023-03-19T00:13:01.645Z,2.90
2023-03-19T00:15:30.103Z,2.80
2023-03-19T00:17:59.938Z,2.70
2023-03-19T00:20:28.626Z,2.70
2023-03-19T00:22:57.213Z,2.70
2023-03-19T00:25:25.795Z,2.70
2023-03-19T00:27:55.106Z,2.50
2023-03-19T00:30:24.190Z,2.60
2023-03-19T00:32:52.903Z,2.70
2023-03-19T00:35:22.788Z,2.80
2023-03-19T00:37:51.461Z,2.80
2023-03-19T00:40:20.091Z,2.80
2023-03-19T00:42:48.745Z,2.80
2023-03-19T00:45:17.428Z,2.80
2023-03-19T00:47:46.086Z,2.70
2023-03-19T00:50:14.588Z,2.70
2023-03-19T00:52:44.469Z,2.80
2023-03-19T00:55:13.036Z,2.80
2023-03-19T00:57:41.450Z,2.90
2023-03-19T01:00:11.222Z,2.90
2023-03-19T01:02:39.701Z,2.70
2023-03-19T01:05:09.603Z,2.70
2023-03-19T01:07:38.088Z,2.70
2023-03-19T01:10:09.705Z,2.70
2023-03-19T01:12:38.303Z,2.70
2023-03-19T01:15:08.762Z,2.70
2023-03-19T01:17:37.465Z,2.70
2023-03-19T01:20:09.017Z,2.70
2023-03-19T01:22:37.747Z,2.70
2023-03-19T01:25:08.702Z,2.80
2023-03-19T01:27:37.376Z,2.80
2023-03-19T01:30:07.529Z,2.80
2023-03-19T01:32:36.164Z,2.80
2023-03-19T01:35:04.872Z,2.80
2023-03-19T01:37:33.796Z,2.70
2023-03-19T01:40:02.277Z,2.60
2023-03-19T01:42:32.226Z,2.40
2023-03-19T01:45:00.830Z,2.10
2023-03-19T01:47:32.249Z,2.10
2023-03-19T01:50:00.893Z,2.10
2023-03-19T01:52:33.763Z,2.20
2023-03-19T01:55:05.290Z,2.30
2023-03-19T01:57:35.182Z,2.30
2023-03-19T02:00:05.461Z,2.30
2023-03-19T02:02:35.818Z,2.30
2023-03-19T02:05:07.912Z,2.40
2023-03-19T02:07:37.495Z,2.30
2023-03-19T02:10:08.217Z,2.10
2023-03-19T02:12:38.527Z,2.10
2023-03-19T02:15:08.303Z,2.20
2023-03-19T02:17:36.838Z,2.30
2023-03-19T02:20:09.812Z,2.30
2023-03-19T02:22:41.033Z,2.40
2023-03-19T02:25:14.803Z,2.40
2023-03-19T02:27:45.088Z,2.40
2023-03-19T02:30:21.560Z,2.30
2023-03-19T02:32:50.044Z,2.40
2023-03-19T02:35:18.644Z,2.40
2023-03-19T02:37:47.104Z,2.50
2023-03-19T02:40:20.117Z,2.50
2023-03-19T02:42:49.894Z,2.60
2023-03-19T02:45:18.519Z,2.60
2023-03-19T02:47:46.916Z,2.50
2023-03-19T02:50:15.565Z,2.50
2023-03-19T02:52:43.994Z,2.30
2023-03-19T02:55:12.568Z,2.30
2023-03-19T02:57:44.382Z,2.30
2023-03-19T03:00:18.804Z,2.30
2023-03-19T03:02:47.367Z,2.30
2023-03-19T03:05:15.909Z,2.40
2023-03-19T03:07:45.000Z,2.30
2023-03-19T03:10:13.953Z,2.30
2023-03-19T03:12:42.366Z,2.30
2023-03-19T03:15:11.222Z,2.30
2023-03-19T03:17:41.884Z,2.20
2023-03-19T03:20:12.745Z,2.30
2023-03-19T03:22:42.141Z,2.30
2023-03-19T03:25:11.512Z,2.20
2023-03-19T03:27:40.455Z,2.20
2023-03-19T03:30:10.732Z,2.20
2023-03-19T03:32:40.956Z,2.20
2023-03-19T03:35:10.278Z,2.30
2023-03-19T03:37:39.704Z,2.30
2023-03-19T03:40:09.554Z,2.30
2023-03-19T03:42:38.284Z,2.20
2023-03-19T03:45:07.547Z,2.20
2023-03-19T03:47:35.998Z,2.10
2023-03-19T03:50:07.228Z,2.10
2023-03-19T03:52:35.899Z,2.10
2023-03-19T03:55:04.917Z,2.10
2023-03-19T03:57:33.347Z,2.10
2023-03-19T04:00:01.844Z,2.10
2023-03-19T04:02:30.839Z,2.10
2023-03-19T04:04:59.349Z,2.10
2023-03-19T04:07:29.231Z,2.00
2023-03-19T04:09:58.684Z,1.90
2023-03-19T04:12:27.413Z,1.60
2023-03-19T04:14:55.844Z,1.60
2023-03-19T04:17:24.408Z,1.70
2023-03-19T04:19:52.822Z,1.50
2023-03-19T04:22:21.312Z,1.60
2023-03-19T04:24:51.248Z,1.70
2023-03-19T04:27:19.697Z,1.70
2023-03-19T04:29:48.156Z,1.80
2023-03-19T04:32:16.771Z,1.80
2023-03-19T04:34:45.301Z,1.90
2023-03-19T04:37:13.798Z,1.90
2023-03-19T04:39:42.208Z,1.80
2023-03-19T04:42:12.543Z,1.80
2023-03-19T04:44:41.001Z,1.80
2023-03-19T04:47:10.299Z,1.80
2023-03-19T04:49:39.034Z,1.70
2023-03-19T04:52:07.749Z,1.70
2023-03-19T04:54:36.239Z,1.60
2023-03-19T04:57:04.680Z,1.70
2023-03-19T04:59:34.597Z,1.60
2023-03-19T05:02:03.146Z,1.70
2023-03-19T05:04:31.633Z,1.50
2023-03-19T05:07:00.114Z,1.50
2023-03-19T05:09:28.915Z,1.50
2023-03-19T05:11:57.347Z,1.30
2023-03-19T05:14:25.892Z,1.40
2023-03-19T05:16:55.792Z,1.50
2023-03-19T05:19:25.206Z,1.60
2023-03-19T05:21:53.621Z,1.60
2023-03-19T05:24:22.257Z,1.60
2023-03-19T05:26:50.740Z,1.70
2023-03-19T05:29:19.206Z,1.60
2023-03-19T05:31:48.138Z,1.60
2023-03-19T05:34:18.075Z,1.80
2023-03-19T05:36:46.530Z,2.10
2023-03-19T05:39:14.950Z,2.40
2023-03-19T05:41:43.396Z,2.70
2023-03-19T05:44:11.953Z,2.90
2023-03-19T05:46:41.697Z,3.30
2023-03-19T05:49:10.576Z,3.60
2023-03-19T05:51:40.382Z,3.90
2023-03-19T05:54:08.959Z,4.10
2023-03-19T05:56:37.750Z,4.20
2023-03-19T05:59:06.653Z,4.40
2023-03-19T06:01:35.647Z,4.40
2023-03-19T06:04:06.138Z,4.40
2023-03-19T06:06:34.862Z,4.30
2023-03-19T06:09:05.298Z,4.20
2023-03-19T06:11:33.782Z,4.00
2023-03-19T06:14:02.207Z,3.90
2023-03-19T06:16:30.745Z,4.00
2023-03-19T06:18:59.261Z,4.10
2023-03-19T06:21:29.777Z,4.20
2023-03-19T06:23:58.498Z,4.30
2023-03-19T06:26:28.594Z,4.40
2023-03-19T06:28:57.478Z,4.40
2023-03-19T06:31:26.044Z,4.50
2023-03-19T06:33:54.739Z,4.50
2023-03-19T06:36:23.338Z,4.60
2023-03-19T06:38:51.961Z,4.40
2023-03-19T06:41:21.272Z,4.60
2023-03-19T06:43:51.246Z,4.80
2023-03-19T06:46:19.802Z,5.10
2023-03-19T06:48:48.453Z,5.30
2023-03-19T06:51:17.037Z,5.40
2023-03-19T06:53:45.514Z,5.60
2023-03-19T06:56:13.999Z,5.90
2023-03-19T06:58:42.559Z,6.30
2023-03-19T07:01:12.621Z,6.70
2023-03-19T07:03:41.104Z,7.00
2023-03-19T07:06:09.593Z,7.20
2023-03-19T07:08:38.091Z,7.60
2023-03-19T07:11:07.610Z,7.90
2023-03-19T07:13:38.037Z,8.30
2023-03-19T07:16:07.266Z,8.60
2023-03-19T07:18:37.184Z,8.80
2023-03-19T07:21:06.127Z,9.10
2023-03-19T07:23:34.544Z,9.20
2023-03-19T07:26:03.532Z,9.30
2023-03-19T07:28:32.046Z,9.50
2023-03-19T07:31:00.577Z,9.60
2023-03-19T07:33:29.058Z,9.50
2023-03-19T07:35:58.938Z,9.60
2023-03-19T07:38:27.622Z,9.50
2023-03-19T07:41:02.306Z,9.50
2023-03-19T07:43:31.382Z,9.60
2023-03-19T07:46:00.832Z,9.70
2023-03-19T07:48:29.271Z,9.70
2023-03-19T07:50:59.263Z,9.80
2023-03-19T07:53:27.832Z,9.80
2023-03-19T07:55:56.468Z,9.80
2023-03-19T07:58:27.068Z,9.80
2023-03-19T08:00:56.051Z,9.80
2023-03-19T08:03:24.559Z,9.90
2023-03-19T08:05:53.872Z,9.90
2023-03-19T08:08:23.707Z,10.00
2023-03-19T08:10:54.970Z,10.00
2023-03-19T08:13:23.705Z,10.10
2023-03-19T08:15:53.509Z,10.20
2023-03-19T08:18:22.082Z,10.30
2023-03-19T08:20:50.879Z,10.50
2023-03-19T08:23:19.604Z,10.50
2023-03-19T08:25:51.782Z,10.50
2023-03-19T08:28:20.636Z,10.60
2023-03-19T08:30:49.253Z,10.60
2023-03-19T08:33:17.911Z,10.60
2023-03-19T08:35:46.609Z,10.70
2023-03-19T08:38:15.412Z,10.80
2023-03-19T08:40:43.904Z,10.90
2023-03-19T08:43:13.717Z,11.00
2023-03-19T08:45:42.445Z,11.20
2023-03-19T08:48:10.875Z,11.20
2023-03-19T08:50:39.419Z,11.40
2023-03-19T08:53:07.985Z,11.50
2023-03-19T08:55:36.489Z,11.60
2023-03-19T08:58:04.930Z,11.70
2023-03-19T09:00:35.120Z,11.80
2023-03-19T09:03:03.767Z,12.00
2023-03-19T09:05:32.311Z,12.10
2023-03-19T09:08:00.857Z,12.10
2023-03-19T09:10:29.472Z,12.20
2023-03-19T09:12:58.481Z,12.30
2023-03-19T09:15:27.071Z,12.40
2023-03-19T09:17:57.110Z,12.30
2023-03-19T09:20:25.827Z,12.30
2023-03-19T09:22:54.225Z,12.30
2023-03-19T09:25:22.726Z,12.30
2023-03-19T09:27:51.188Z,12.50
2023-03-19T09:30:19.860Z,12.60
2023-03-19T09:32:48.437Z,12.60
2023-03-19T09:35:18.430Z,12.70
2023-03-19T09:37:46.996Z,12.80
2023-03-19T09:40:23.150Z,12.80
2023-03-19T09:43:00.875Z,12.90
2023-03-19T09:45:30.603Z,12.90
2023-03-19T09:48:04.290Z,13.00
2023-03-19T09:50:36.505Z,13.10
2023-03-19T09:53:09.318Z,13.20
2023-03-19T09:55:42.731Z,13.30
2023-03-19T09:58:15.740Z,13.30
2023-03-19T10:00:45.759Z,13.30
2023-03-19T10:03:26.928Z,13.30
2023-03-19T10:06:03.220Z,13.40
2023-03-19T10:08:39.794Z,13.40
2023-03-19T10:11:20.968Z,13.50
2023-03-19T10:13:58.441Z,13.50
2023-03-19T10:16:29.224Z,13.60
2023-03-19T10:19:00.483Z,13.60
2023-03-19T10:21:34.324Z,13.60
2023-03-19T10:24:05.058Z,13.60
2023-03-19T10:26:35.835Z,13.70
2023-03-19T10:29:08.233Z,13.70
2023-03-19T10:31:47.238Z,13.80
2023-03-19T10:34:31.438Z,13.80
2023-03-19T10:37:03.899Z,13.90
2023-03-19T10:39:34.255Z,13.90
2023-03-19T10:42:13.830Z,14.00
2023-03-19T10:44:48.475Z,14.10
2023-03-19T10:47:19.249Z,14.10
2023-03-19T10:49:47.991Z,14.10
2023-03-19T10:52:30.648Z,14.20
2023-03-19T10:55:04.608Z,14.20
2023-03-19T10:57:33.172Z,14.30
2023-03-19T11:00:04.841Z,14.20
2023-03-19T11:02:33.599Z,14.20
2023-03-19T11:05:10.297Z,14.20
2023-03-19T11:07:40.612Z,14.30
2023-03-19T11:10:14.715Z,14.40
2023-03-19T11:12:43.564Z,14.30
2023-03-19T11:15:21.594Z,14.30
2023-03-19T11:17:51.918Z,14.30
2023-03-19T11:20:26.400Z,14.40
2023-03-19T11:22:57.515Z,14.50
2023-03-19T11:25:28.654Z,14.50
2023-03-19T11:28:02.147Z,14.70
2023-03-19T11:30:38.983Z,14.80
2023-03-19T11:33:17.697Z,14.90
2023-03-19T11:35:50.670Z,15.00
2023-03-19T11:38:26.403Z,15.20
2023-03-19T11:41:02.175Z,15.30
2023-03-19T11:43:48.246Z,15.30
2023-03-19T11:46:25.049Z,15.30
2023-03-19T11:49:09.411Z,15.30
2023-03-19T11:51:41.806Z,15.40
2023-03-19T11:54:22.250Z,15.40
2023-03-19T11:56:56.782Z,15.50
2023-03-19T11:59:44.625Z,15.50
2023-03-19T12:02:30.538Z,15.50
2023-03-19T12:05:13.904Z,15.60
2023-03-19T12:07:47.537Z,15.70
2023-03-19T12:10:30.191Z,15.90
2023-03-19T12:13:08.444Z,15.80
2023-03-19T12:15:41.229Z,15.80
2023-03-19T12:18:18.628Z,15.90
2023-03-19T12:20:55.479Z,16.00
2023-03-19T12:23:35.920Z,16.00
2023-03-19T12:26:08.786Z,16.00
2023-03-19T12:28:40.660Z,16.00
2023-03-19T12:31:36.912Z,16.10
2023-03-19T12:34:20.846Z,16.20
2023-03-19T12:36:54.057Z,16.20
2023-03-19T12:39:25.562Z,16.20
2023-03-19T12:41:58.358Z,16.00
2023-03-19T12:44:31.219Z,15.90
2023-03-19T12:47:03.817Z,15.80
2023-03-19T12:49:37.287Z,15.70
2023-03-19T12:52:13.681Z,15.50
2023-03-19T12:54:44.770Z,15.50
2023-03-19T12:57:19.575Z,15.40
2023-03-19T12:59:51.769Z,15.40
2023-03-19T13:02:26.620Z,15.50
2023-03-19T13:04:58.062Z,15.50
2023-03-19T13:07:32.223Z,15.50
2023-03-19T13:10:05.148Z,15.50
2023-03-19T13:12:38.231Z,15.50
2023-03-19T13:15:10.764Z,15.60
2023-03-19T13:17:43.500Z,15.60
2023-03-19T13:20:20.160Z,15.50
2023-03-19T13:22:54.483Z,15.50
2023-03-19T13:25:25.518Z,15.50
2023-03-19T13:27:56.378Z,15.50
2023-03-19T13:30:26.276Z,15.40
2023-03-19T13:33:02.904Z,15.40
2023-03-19T13:35:40.663Z,15.30
2023-03-19T13:38:19.620Z,15.30
2023-03-19T13:40:50.650Z,15.30
2023-03-19T13:43:43.753Z,15.30
2023-03-19T13:46:37.521Z,15.20
2023-03-19T13:49:27.335Z,15.20
2023-03-19T13:51:58.384Z,15.20
2023-03-19T13:54:40.103Z,15.20
2023-03-19T13:57:34.069Z,15.30
2023-03-19T14:00:51.163Z,15.30
2023-03-19T14:03:21.884Z,15.20
2023-03-19T14:05:52.343Z,15.20
2023-03-19T14:08:22.488Z,15.20
2023-03-19T14:10:52.964Z,15.10
2023-03-19T14:13:31.962Z,15.10
2023-03-19T14:16:08.974Z,15.10
2023-03-19T14:18:42.377Z,15.10
2023-03-19T14:21:13.204Z,15.10
2023-03-19T14:23:46.324Z,15.10
2023-03-19T14:26:20.725Z,15.00
2023-03-19T14:28:58.987Z,15.00
2023-03-19T14:31:35.262Z,15.00
2023-03-19T14:34:08.533Z,15.00
2023-03-19T14:36:38.297Z,15.00
2023-03-19T14:39:10.643Z,15.00
2023-03-19T14:41:43.659Z,15.00
2023-03-19T14:44:51.150Z,14.90
2023-03-19T14:47:31.546Z,14.90
2023-03-19T14:50:35.652Z,14.90
2023-03-19T14:53:06.887Z,14.90
2023-03-19T14:55:38.028Z,14.90
2023-03-19T14:58:06.910Z,14.80
2023-03-19T15:00:44.637Z,14.80
2023-03-19T15:03:23.327Z,14.80
2023-03-19T15:05:57.952Z,14.70
2023-03-19T15:08:26.752Z,14.70
2023-03-19T15:11:09.264Z,14.70
2023-03-19T15:13:45.527Z,14.70
2023-03-19T15:16:28.718Z,14.60
2023-03-19T15:18:58.676Z,14.60
2023-03-19T15:21:27.846Z,14.60
2023-03-19T15:23:56.365Z,14.50
2023-03-19T15:26:32.441Z,14.50
2023-03-19T15:29:01.108Z,14.50
2023-03-19T15:31:52.351Z,14.50
2023-03-19T15:34:32.029Z,14.50
2023-03-19T15:37:02.580Z,14.40
2023-03-19T15:39:33.538Z,14.40
2023-03-19T15:42:02.367Z,14.40
2023-03-19T15:44:34.761Z,14.40
2023-03-19T15:47:04.982Z,14.30
2023-03-19T15:49:38.244Z,14.30
2023-03-19T15:52:09.391Z,14.30
2023-03-19T15:54:37.884Z,14.30
2023-03-19T15:57:07.686Z,14.20
2023-03-19T15:59:36.303Z,14.20
2023-03-19T16:02:12.258Z,14.20
2023-03-19T16:05:10.481Z,14.20
2023-03-19T16:07:42.755Z,14.10
2023-03-19T16:10:38.323Z,14.10
2023-03-19T16:13:28.720Z,14.10
2023-03-19T16:16:02.360Z,14.10
2023-03-19T16:18:32.662Z,14.00
2023-03-19T16:21:09.275Z,13.90
2023-03-19T16:23:38.957Z,13.90
2023-03-19T16:26:17.926Z,13.90
2023-03-19T16:28:50.489Z,13.80
2023-03-19T16:31:24.827Z,13.80
2023-03-19T16:33:53.905Z,13.70
2023-03-19T16:36:25.184Z,13.70
2023-03-19T16:38:58.997Z,13.60
2023-03-19T16:41:33.783Z,13.50
2023-03-19T16:44:16.787Z,13.40
2023-03-19T16:46:45.765Z,13.40
2023-03-19T16:49:14.280Z,13.30
2023-03-19T16:51:44.369Z,13.30
2023-03-19T16:54:14.596Z,13.20
2023-03-19T16:56:43.254Z,13.20
2023-03-19T16:59:14.597Z,13.10
2023-03-19T17:01:43.113Z,13.10
2023-03-19T17:04:17.517Z,13.00
2023-03-19T17:06:47.549Z,13.00
2023-03-19T17:09:16.551Z,12.80
2023-03-19T17:11:45.441Z,12.70
2023-03-19T17:14:17.838Z,12.70
2023-03-19T17:16:50.664Z,12.70
2023-03-19T17:19:22.032Z,12.70
2023-03-19T17:21:53.507Z,12.60
2023-03-19T17:24:24.824Z,12.60
2023-03-19T17:26:53.834Z,12.50
2023-03-19T17:29:24.848Z,12.50
2023-03-19T17:31:53.833Z,12.40
2023-03-19T17:34:25.325Z,12.40
2023-03-19T17:36:57.071Z,12.40
2023-03-19T17:39:26.626Z,12.40
2023-03-19T17:41:55.065Z,12.40
2023-03-19T17:44:23.728Z,12.30
2023-03-19T17:46:54.399Z,12.30
2023-03-19T17:49:25.078Z,12.20
2023-03-19T17:51:55.043Z,12.10
2023-03-19T17:54:25.836Z,12.10
2023-03-19T17:56:54.499Z,12.10
2023-03-19T17:59:23.466Z,12.00
2023-03-19T18:01:52.317Z,12.00
2023-03-19T18:04:22.415Z,12.00
2023-03-19T18:06:54.785Z,12.00
2023-03-19T18:09:24.777Z,11.90
2023-03-19T18:11:53.318Z,11.80
2023-03-19T18:14:21.813Z,11.70
2023-03-19T18:16:50.404Z,11.70
2023-03-19T18:19:22.067Z,11.50
2023-03-19T18:21:50.503Z,11.40
2023-03-19T18:24:20.301Z,11.30
2023-03-19T18:26:48.779Z,11.30
2023-03-19T18:29:17.393Z,11.30
2023-03-19T18:31:47.110Z,11.30
2023-03-19T18:34:16.887Z,11.20
2023-03-19T18:36:45.590Z,11.10
2023-03-19T18:39:16.131Z,11.10
2023-03-19T18:41:46.068Z,11.00
2023-03-19T18:44:14.469Z,11.00
2023-03-19T18:46:43.310Z,10.90
2023-03-19T18:49:20.906Z,10.90
2023-03-19T18:52:01.641Z,10.90
2023-03-19T18:54:32.000Z,10.80
2023-03-19T18:57:02.621Z,10.50
2023-03-19T18:59:33.189Z,10.50
2023-03-19T19:02:03.433Z,10.40
2023-03-19T19:04:32.331Z,10.40
2023-03-19T19:07:01.737Z,10.40
2023-03-19T19:09:30.429Z,10.30
2023-03-19T19:12:02.053Z,10.30
2023-03-19T19:14:30.895Z,10.30
2023-03-19T19:16:59.747Z,10.30
2023-03-19T19:19:28.807Z,10.10
2023-03-19T19:21:57.260Z,10.00
2023-03-19T19:24:25.768Z,9.90
2023-03-19T19:26:54.490Z,10.00
2023-03-19T19:29:26.762Z,9.90
2023-03-19T19:31:55.588Z,10.00
2023-03-19T19:34:24.474Z,9.90
2023-03-19T19:36:55.485Z,9.90
2023-03-19T19:39:24.011Z,9.90
2023-03-19T19:41:54.019Z,9.90
2023-03-19T19:44:24.893Z,9.90
2023-03-19T19:46:54.617Z,9.80
2023-03-19T19:49:24.782Z,9.70
2023-03-19T19:51:53.202Z,9.60
2023-03-19T19:54:22.813Z,9.60
2023-03-19T19:56:52.197Z,9.60
2023-03-19T19:59:21.046Z,9.50
2023-03-19T20:01:50.928Z,9.60
2023-03-19T20:04:21.233Z,9.60
2023-03-19T20:06:51.276Z,9.50
2023-03-19T20:09:19.865Z,9.20
2023-03-19T20:11:48.499Z,9.10
2023-03-19T20:14:17.052Z,8.90
2023-03-19T20:16:45.545Z,9.00
2023-03-19T20:19:20.116Z,8.90
2023-03-19T20:21:48.654Z,8.80
2023-03-19T20:24:17.086Z,8.90
2023-03-19T20:26:45.669Z,8.90
2023-03-19T20:29:16.040Z,8.90
2023-03-19T20:31:46.120Z,8.90
2023-03-19T20:34:32.498Z,8.90
2023-03-19T20:37:05.278Z,8.90
2023-03-19T20:39:33.806Z,8.80
2023-03-19T20:42:02.369Z,8.60
2023-03-19T20:44:30.958Z,8.70
2023-03-19T20:46:59.433Z,8.70
2023-03-19T20:49:30.911Z,8.70
2023-03-19T20:51:59.497Z,8.70
2023-03-19T20:54:27.965Z,8.60
2023-03-19T20:56:56.465Z,8.50
2023-03-19T20:59:26.869Z,8.50
2023-03-19T21:01:56.467Z,8.20
2023-03-19T21:04:24.968Z,8.20
2023-03-19T21:06:54.819Z,8.20
2023-03-19T21:09:24.340Z,8.20
2023-03-19T21:11:53.258Z,8.10
2023-03-19T21:14:23.440Z,8.10
2023-03-19T21:16:51.963Z,8.10
2023-03-19T21:19:20.406Z,8.00
2023-03-19T21:21:49.324Z,7.90
2023-03-19T21:24:20.884Z,7.90
2023-03-19T21:26:50.060Z,7.90
2023-03-19T21:29:22.880Z,7.90
2023-03-19T21:31:54.171Z,7.90
2023-03-19T21:34:22.617Z,7.90
2023-03-19T21:36:51.064Z,7.90
2023-03-19T21:39:21.968Z,7.90
2023-03-19T21:41:50.505Z,7.80
2023-03-19T21:44:21.719Z,7.90
2023-03-19T21:46:50.648Z,7.90
2023-03-19T21:49:19.116Z,7.90
2023-03-19T21:51:47.841Z,7.80
2023-03-19T21:54:16.294Z,7.80
2023-03-19T21:56:47.067Z,7.70
2023-03-19T21:59:16.586Z,7.60
2023-03-19T22:01:45.018Z,7.60
2023-03-19T22:04:13.566Z,7.20
2023-03-19T22:06:43.144Z,7.20
2023-03-19T22:09:11.747Z,7.30
2023-03-19T22:11:41.871Z,7.30
2023-03-19T22:14:17.796Z,7.20
2023-03-19T22:16:46.488Z,7.20
2023-03-19T22:19:15.619Z,7.20
2023-03-19T22:21:44.057Z,7.00
2023-03-19T22:24:12.738Z,6.90
2023-03-19T22:26:42.873Z,7.00
2023-03-19T22:29:18.703Z,7.00
2023-03-19T22:31:49.495Z,7.00
2023-03-19T22:34:21.581Z,6.90
2023-03-19T22:36:50.467Z,6.80
2023-03-19T22:39:18.897Z,6.90
2023-03-19T22:41:48.977Z,6.90
2023-03-19T22:44:24.691Z,6.90
2023-03-19T22:46:53.510Z,6.70
2023-03-19T22:49:21.997Z,6.80
2023-03-19T22:51:51.743Z,6.80
2023-03-19T22:54:20.152Z,6.80
2023-03-19T22:56:48.728Z,6.80
2023-03-19T22:59:18.697Z,6.70
2023-03-19T23:01:48.106Z,6.70
2023-03-19T23:04:20.239Z,6.70
2023-03-19T23:06:49.077Z,6.70
2023-03-19T23:09:20.010Z,6.70
2023-03-19T23:11:49.433Z,6.60
2023-03-19T23:14:29.024Z,6.60
2023-03-19T23:19:29.950Z,6.40
2023-03-19T23:21:58.945Z,6.50
2023-03-19T23:24:27.891Z,6.50
2023-03-19T23:26:57.807Z,6.40
2023-03-19T23:29:30.512Z,6.40
2023-03-19T23:31:58.965Z,6.40
2023-03-19T23:34:28.637Z,6.30
2023-03-19T23:36:57.947Z,6.20
2023-03-19T23:39:26.807Z,6.20
2023-03-19T23:41:58.311Z,6.10
2023-03-19T23:44:29.187Z,5.90
2023-03-19T23:47:01.065Z,6.00
2023-03-19T23:49:32.226Z,6.00
2023-03-19T23:52:01.862Z,6.00
2023-03-19T23:54:32.127Z,6.00
2023-03-19T23:57:02.335Z,6.00
2023-03-19T23:59:34.665Z,6.10
